LIBR/BDS METAR and TAF weather

Enter ICAO airport designator
Station Type Date Time Source
LIBR METAR 2021/07/26 16:20 UTC NOAA

LIBR 261620Z 21013KT CAVOK 32/17 Q1015


Station Type Date Time Source
LIBR Decoded METAR 2021/07/26 16:20 UTC NOAA

Brindisi, Italy (LIBR) 40-39N 017-57E 10M
Jul 26, 2021 - 12:20 PM EDT / 2021.07.26 1620 UTC
Wind: from the SSW (210 degrees) at 15 MPH (13 KT):0
Visibility: greater than 7 mile(s):0
Temperature: 89 F (32 C)
Dew Point: 62 F (17 C)
Relative Humidity: 40%
Pressure (altimeter): 29.97 in. Hg (1015 hPa)
ob: LIBR 261620Z 21013KT CAVOK 32/17 Q1015
cycle: 16

Station Type Date Time Source
LIBR TAF 2021/07/26 12:21 UTC NOAA

TAF LIBR 261100Z 2612/2712 20013KT 9999 FEW040
BECMG 2618/2620 VRB05KT

Example: see airport list